McCool Junction, NE

12:48 AM CDT on July 05, 2015 (GMT -0500)
SLS - SW York, NE | | Change Station
CLOSE
Current Station
Personal Weather Station
Location: York, NE
Elevation: 1647 ft
Nearby Weather Stations

Elev 1647 ft 40.86 °N, 97.61 °W | Updated 40 seconds ago

Partly Cloudy
Partly Cloudy
69.8 °F
Feels Like 69.8 °F
N
2.0
Wind Variable Wind from SE
Gusts 2.0 mph

Today
High -- | Low -- °F
--% Chance of Precip.
Yesterday
High -- | Low -- °F
Precip. -- in
6:04 AM 9:04 PM
Waning Gibbous, 87% visible
Pressure 29.93 in
Visibility 10.0 miles
Clouds Clear
Dew Point 65 °F
Humidity 85%
Rainfall 0.00 in
Snow Depth Not available.
UV 0 out of 12
Pollen 4.30 out of 12
Air Quality Not available.
Flu Activity Not available.
METAR KJYR 050535Z AUTO 16010KT 10SM CLR 22/18 A2993 RMK AO2

More Conditions Fewer Conditions

Pressure 29.93 in
Visibility 10.0 miles
Clouds Clear
Dew Point 65 °F
Humidity 85%
Rainfall 0.00 in
Snow Depth Not available.
UV 0 out of 12
Pollen 4.30 out of 12
Air Quality Not available.
Flu Activity Not available.
METAR KJYR 050535Z AUTO 16010KT 10SM CLR 22/18 A2993 RMK AO2

More Conditions Fewer Conditions

10-Day Weather Forecast

×

Almanac

Astronomy

Jul. 05, 2015 Rise Set
Actual Time
Civil Twilight
Nautical Twilight
Astronomical Twilight
Moon
Length of Visible Light
Length of Day
Tomorrow will be .
, % of the Moon is Illuminated

Today's Extremes

State Highs State Lows

Community

WunderPhotos

Upload Photos

1,835,203 photos uploaded!

WunderBlogs® & News

Nearby

Air Quality

  Air Quality AQ Index Pollutant
Not available.

Snow Depth

Station Depth Elevation

Earthquake Activity

City Distance Mag. Time & Date
Minimum magnitude displayed is 2.5.

Coastal Water Temperatures

Place Temperature

Stations

Nearby Weather Stations

Station Location Temp. Windchill Dew Point Humidity Wind Precip. Elev Updated Type